Time;durP1;ratioP1;P1;durP2;ratioP2;P2;SDS_P1;SDS_P2;PMS_P1;PMS_P2;Temp;Humidity;BMP_temperature;BMP_pressure;BME280_temperature;BME280_humidity;BME280_pressure;Samples;Min_cycle;Max_cycle;Signal;HPM_P1;HPM_P2
2023/10/31 00:01:50;;;;;;;0.95;0.82;;;;;;;;;;4994607;28;20031;-88
2023/10/31 00:04:17;;;;;;;2.53;0.98;;;;;;;;;;4995938;28;20026;-89
2023/10/31 00:06:43;;;;;;;0.68;0.60;;;;;;;;;;4995649;28;20022;-86
2023/10/31 00:09:10;;;;;;;1.73;1.08;;;;;;;;;;4994796;28;20033;-89
2023/10/31 00:11:36;;;;;;;0.60;0.60;;;;;;;;;;4994550;28;20022;-87
2023/10/31 00:14:03;;;;;;;2.30;1.23;;;;;;;;;;4996328;28;20032;-87
2023/10/31 00:16:29;;;;;;;0.93;0.73;;;;;;;;;;4995982;28;20033;-89
2023/10/31 00:18:55;;;;;;;1.30;1.00;;;;;;;;;;4994715;28;20033;-87
2023/10/31 00:21:21;;;;;;;1.20;0.95;;;;;;;;;;4996756;28;20022;-88
2023/10/31 00:23:48;;;;;;;0.85;0.70;;;;;;;;;;4995861;28;20482;-87
2023/10/31 00:26:15;;;;;;;0.82;0.73;;;;;;;;;;4994777;28;20058;-88
2023/10/31 00:28:41;;;;;;;1.10;0.90;;;;;;;;;;4995068;28;20047;-86
2023/10/31 00:31:08;;;;;;;1.63;1.42;;;;;;;;;;4994043;28;20080;-88
2023/10/31 00:33:35;;;;;;;1.05;0.85;;;;;;;;;;4995075;28;20167;-89
2023/10/31 00:36:01;;;;;;;1.90;1.38;;;;;;;;;;4993983;28;20050;-87
2023/10/31 00:38:27;;;;;;;0.98;0.85;;;;;;;;;;4993604;28;20034;-88
2023/10/31 00:40:53;;;;;;;1.10;0.70;;;;;;;;;;4994906;28;20073;-86
2023/10/31 00:43:19;;;;;;;1.52;1.33;;;;;;;;;;4995204;28;20545;-88
2023/10/31 00:45:45;;;;;;;1.00;0.80;;;;;;;;;;4993819;28;20019;-86
2023/10/31 00:48:11;;;;;;;0.80;0.70;;;;;;;;;;4996090;28;20423;-89
2023/10/31 00:50:37;;;;;;;1.05;0.90;;;;;;;;;;4997535;28;20027;-86
2023/10/31 00:53:04;;;;;;;0.63;0.60;;;;;;;;;;4995859;28;20434;-87
2023/10/31 00:55:30;;;;;;;0.75;0.70;;;;;;;;;;4998081;28;20134;-87
2023/10/31 00:57:56;;;;;;;1.65;1.10;;;;;;;;;;4997293;28;20027;-87
2023/10/31 01:00:22;;;;;;;7.22;1.70;;;;;;;;;;4998522;28;20019;-87
2023/10/31 01:02:48;;;;;;;0.60;0.60;;;;;;;;;;4998830;28;20031;-87
2023/10/31 01:05:14;;;;;;;0.75;0.60;;;;;;;;;;4998121;28;20018;-88
2023/10/31 01:07:40;;;;;;;0.98;0.90;;;;;;;;;;4999249;28;20026;-90
2023/10/31 01:10:07;;;;;;;1.02;0.82;;;;;;;;;;4997552;28;20037;-88
2023/10/31 01:12:33;;;;;;;1.35;1.25;;;;;;;;;;4997196;28;20030;-87
2023/10/31 01:14:59;;;;;;;1.77;1.00;;;;;;;;;;4998441;28;20061;-88
2023/10/31 01:17:25;;;;;;;1.05;0.95;;;;;;;;;;4998769;28;20022;-88
2023/10/31 01:19:51;;;;;;;0.80;0.68;;;;;;;;;;4996746;28;20046;-88
2023/10/31 01:22:17;;;;;;;1.10;0.70;;;;;;;;;;4998155;28;20519;-88
2023/10/31 01:24:43;;;;;;;0.68;0.68;;;;;;;;;;4998850;28;20213;-87
2023/10/31 01:27:09;;;;;;;0.85;0.80;;;;;;;;;;4998000;28;20023;-87
2023/10/31 01:29:35;;;;;;;1.10;0.77;;;;;;;;;;4997972;28;20022;-89
2023/10/31 01:32:01;;;;;;;0.98;0.85;;;;;;;;;;4997403;28;20026;-88
2023/10/31 01:34:27;;;;;;;1.13;0.80;;;;;;;;;;4996563;28;20031;-90
2023/10/31 01:36:54;;;;;;;1.00;0.80;;;;;;;;;;4996876;28;20046;-88
2023/10/31 01:39:20;;;;;;;0.77;0.60;;;;;;;;;;4998355;28;20101;-89
2023/10/31 01:41:46;;;;;;;1.30;0.80;;;;;;;;;;4996878;28;20028;-88
2023/10/31 01:44:12;;;;;;;1.05;0.90;;;;;;;;;;5003363;28;20037;-87
2023/10/31 01:46:38;;;;;;;2.20;1.38;;;;;;;;;;5004533;28;20038;-87
2023/10/31 01:49:04;;;;;;;1.25;1.05;;;;;;;;;;4996650;28;20137;-89
2023/10/31 01:51:31;;;;;;;0.85;0.80;;;;;;;;;;4996554;28;20019;-89
2023/10/31 01:53:57;;;;;;;0.88;0.82;;;;;;;;;;4997422;28;20041;-87
2023/10/31 01:56:23;;;;;;;1.05;0.90;;;;;;;;;;4998308;28;20101;-88
2023/10/31 01:58:50;;;;;;;1.10;0.90;;;;;;;;;;4996342;28;20026;-88
2023/10/31 02:01:16;;;;;;;4.85;1.33;;;;;;;;;;4996235;28;20022;-88
2023/10/31 02:03:43;;;;;;;1.33;1.23;;;;;;;;;;4998242;28;20023;-87
2023/10/31 02:06:09;;;;;;;0.68;0.68;;;;;;;;;;5000574;28;20029;-89
2023/10/31 02:08:35;;;;;;;1.38;0.85;;;;;;;;;;4996414;28;20463;-90
2023/10/31 02:11:03;;;;;;;1.13;0.90;;;;;;;;;;4997425;28;20026;-88
2023/10/31 02:13:29;;;;;;;1.15;0.90;;;;;;;;;;4997393;28;20058;-88
2023/10/31 02:15:55;;;;;;;0.60;0.60;;;;;;;;;;4995945;28;20054;-87
2023/10/31 02:18:21;;;;;;;1.15;0.80;;;;;;;;;;4996786;28;20031;-89
2023/10/31 02:20:49;;;;;;;0.60;0.60;;;;;;;;;;4996641;28;20022;-89
2023/10/31 02:23:18;;;;;;;0.68;0.68;;;;;;;;;;4996534;28;20027;-88
2023/10/31 02:25:44;;;;;;;0.90;0.70;;;;;;;;;;4997156;28;20025;-89
2023/10/31 02:28:10;;;;;;;1.40;1.20;;;;;;;;;;4996079;28;20027;-87
2023/10/31 02:30:36;;;;;;;3.03;0.90;;;;;;;;;;4995726;28;20486;-89
2023/10/31 02:33:03;;;;;;;0.90;0.80;;;;;;;;;;4995836;28;20030;-89
2023/10/31 02:35:29;;;;;;;0.70;0.65;;;;;;;;;;5014865;28;20085;-87
2023/10/31 02:37:56;;;;;;;0.70;0.70;;;;;;;;;;5010872;28;20129;-89
2023/10/31 02:40:22;;;;;;;0.80;0.70;;;;;;;;;;4997584;28;20110;-88
2023/10/31 02:42:48;;;;;;;0.90;0.80;;;;;;;;;;5001063;28;20462;-89
2023/10/31 02:45:15;;;;;;;0.80;0.70;;;;;;;;;;5002360;28;20088;-89
2023/10/31 02:47:41;;;;;;;1.13;0.90;;;;;;;;;;5000616;28;20025;-88
2023/10/31 02:50:07;;;;;;;0.93;0.80;;;;;;;;;;4999358;28;20030;-87
2023/10/31 02:52:34;;;;;;;1.52;1.02;;;;;;;;;;5000791;28;20029;-88
2023/10/31 02:55:00;;;;;;;0.98;0.80;;;;;;;;;;4999358;28;20055;-88
2023/10/31 02:57:26;;;;;;;1.00;0.68;;;;;;;;;;4998122;28;20542;-88
2023/10/31 02:59:52;;;;;;;1.80;0.98;;;;;;;;;;4997564;28;20023;-88
2023/10/31 03:02:18;;;;;;;1.10;0.80;;;;;;;;;;4997466;28;20054;-89
2023/10/31 03:04:44;;;;;;;1.13;0.93;;;;;;;;;;4994858;28;20497;-89
2023/10/31 03:07:10;;;;;;;0.88;0.70;;;;;;;;;;4995366;28;20082;-88
2023/10/31 03:09:36;;;;;;;1.10;1.00;;;;;;;;;;4994639;28;20113;-89
2023/10/31 03:12:02;;;;;;;0.85;0.70;;;;;;;;;;4996689;28;20134;-89
2023/10/31 03:14:28;;;;;;;1.10;0.80;;;;;;;;;;4995020;28;20035;-87
2023/10/31 03:16:55;;;;;;;0.80;0.70;;;;;;;;;;4996408;28;20466;-89
2023/10/31 03:19:21;;;;;;;1.00;0.80;;;;;;;;;;4994976;28;20022;-88
2023/10/31 03:21:47;;;;;;;1.40;1.08;;;;;;;;;;4995787;28;20019;-90
2023/10/31 03:24:13;;;;;;;1.58;0.95;;;;;;;;;;4996138;28;20100;-88
2023/10/31 03:26:39;;;;;;;1.33;1.23;;;;;;;;;;4994467;28;20362;-89
2023/10/31 03:29:05;;;;;;;1.77;1.23;;;;;;;;;;4996449;28;20022;-89
2023/10/31 03:31:31;;;;;;;0.80;0.70;;;;;;;;;;4995092;28;20038;-88
2023/10/31 03:33:57;;;;;;;0.88;0.80;;;;;;;;;;4994469;28;20394;-90
2023/10/31 03:36:23;;;;;;;1.15;1.05;;;;;;;;;;4995740;28;20043;-89
2023/10/31 03:38:49;;;;;;;1.05;0.95;;;;;;;;;;4994659;28;20030;-88
2023/10/31 03:41:16;;;;;;;1.92;1.13;;;;;;;;;;4994235;28;20054;-89
2023/10/31 03:43:42;;;;;;;2.15;1.30;;;;;;;;;;4994269;28;20035;-88
2023/10/31 03:46:08;;;;;;;1.20;1.00;;;;;;;;;;4995220;28;20022;-90
2023/10/31 03:48:34;;;;;;;0.75;0.70;;;;;;;;;;4994246;28;20022;-91
2023/10/31 03:51:00;;;;;;;0.88;0.73;;;;;;;;;;4994259;28;20029;-90
2023/10/31 03:53:26;;;;;;;0.98;0.70;;;;;;;;;;4995063;28;20489;-89
2023/10/31 03:55:52;;;;;;;1.33;0.95;;;;;;;;;;4994586;28;20026;-89
2023/10/31 03:58:18;;;;;;;0.80;0.73;;;;;;;;;;4994172;28;20030;-88
2023/10/31 04:00:44;;;;;;;0.60;0.60;;;;;;;;;;4995104;28;20025;-91
2023/10/31 04:03:10;;;;;;;0.80;0.70;;;;;;;;;;4995588;28;20107;-88
2023/10/31 04:05:37;;;;;;;0.93;0.80;;;;;;;;;;4994961;28;20041;-88
2023/10/31 04:08:03;;;;;;;1.05;0.85;;;;;;;;;;4993987;28;20019;-88
2023/10/31 04:10:29;;;;;;;1.35;1.10;;;;;;;;;;4995587;28;20033;-87
2023/10/31 04:12:55;;;;;;;1.23;0.90;;;;;;;;;;4993943;28;20022;-89
2023/10/31 04:15:22;;;;;;;1.02;0.80;;;;;;;;;;4995204;28;20018;-87
2023/10/31 04:17:48;;;;;;;0.82;0.70;;;;;;;;;;4994210;28;20026;-89
2023/10/31 04:20:14;;;;;;;0.88;0.77;;;;;;;;;;4995258;28;20022;-89
2023/10/31 04:22:40;;;;;;;0.93;0.80;;;;;;;;;;4995128;28;20022;-89
2023/10/31 04:25:06;;;;;;;0.82;0.70;;;;;;;;;;4995504;28;20467;-87
2023/10/31 04:27:33;;;;;;;0.85;0.75;;;;;;;;;;4994660;28;20034;-87
2023/10/31 04:29:59;;;;;;;1.45;0.70;;;;;;;;;;4997954;28;20128;-90
2023/10/31 04:32:25;;;;;;;0.80;0.70;;;;;;;;;;4998245;28;20138;-89
2023/10/31 04:34:51;;;;;;;0.98;0.80;;;;;;;;;;4997636;28;20046;-89
2023/10/31 04:37:17;;;;;;;0.90;0.82;;;;;;;;;;4998038;28;20019;-89
2023/10/31 04:39:43;;;;;;;1.10;0.80;;;;;;;;;;4998751;28;20102;-89
2023/10/31 04:42:09;;;;;;;0.82;0.70;;;;;;;;;;4998584;28;20034;-88
2023/10/31 04:44:35;;;;;;;1.05;0.90;;;;;;;;;;4998334;28;20097;-88
2023/10/31 04:47:01;;;;;;;0.93;0.73;;;;;;;;;;4997876;28;20038;-89
2023/10/31 04:49:27;;;;;;;4.18;1.85;;;;;;;;;;4998853;28;20447;-88
2023/10/31 04:51:53;;;;;;;1.38;1.23;;;;;;;;;;4997477;28;20033;-88
2023/10/31 04:54:20;;;;;;;1.27;0.88;;;;;;;;;;4998556;28;20029;-90
2023/10/31 04:56:47;;;;;;;1.98;1.23;;;;;;;;;;4999270;28;20085;-89
2023/10/31 04:59:13;;;;;;;0.90;0.80;;;;;;;;;;4997514;28;20466;-88
2023/10/31 05:01:40;;;;;;;1.17;0.90;;;;;;;;;;4997900;28;20028;-89
2023/10/31 05:04:06;;;;;;;4.18;0.85;;;;;;;;;;4998562;28;20038;-87
2023/10/31 05:06:32;;;;;;;1.20;1.05;;;;;;;;;;4998963;28;20061;-89
2023/10/31 05:08:58;;;;;;;1.27;1.05;;;;;;;;;;4997710;28;20084;-89
2023/10/31 05:11:24;;;;;;;0.93;0.80;;;;;;;;;;4997334;28;20029;-88
2023/10/31 05:13:51;;;;;;;0.80;0.70;;;;;;;;;;4997391;28;20390;-89
2023/10/31 05:16:17;;;;;;;4.13;1.10;;;;;;;;;;4997212;28;20030;-88
2023/10/31 05:18:43;;;;;;;0.60;0.60;;;;;;;;;;5001437;28;20030;-87
2023/10/31 05:21:09;;;;;;;0.73;0.70;;;;;;;;;;5001892;28;20077;-89
2023/10/31 05:23:35;;;;;;;1.00;0.90;;;;;;;;;;5000445;28;20076;-87
2023/10/31 05:26:01;;;;;;;3.40;0.90;;;;;;;;;;4997097;28;20105;-89
2023/10/31 05:28:28;;;;;;;0.80;0.70;;;;;;;;;;4997028;28;20018;-90
2023/10/31 05:30:54;;;;;;;0.80;0.70;;;;;;;;;;4997318;28;20470;-90
2023/10/31 05:33:20;;;;;;;1.65;0.93;;;;;;;;;;4996908;28;20027;-88
2023/10/31 05:35:46;;;;;;;0.73;0.70;;;;;;;;;;4997926;28;20046;-89
2023/10/31 05:38:12;;;;;;;0.93;0.80;;;;;;;;;;4996591;28;20470;-89
2023/10/31 05:40:38;;;;;;;5.95;1.17;;;;;;;;;;4996046;28;20034;-88
2023/10/31 05:43:05;;;;;;;3.40;1.90;;;;;;;;;;4996719;28;20072;-92
2023/10/31 05:45:31;;;;;;;1.00;0.80;;;;;;;;;;4996382;28;20026;-88
2023/10/31 05:47:57;;;;;;;1.17;0.90;;;;;;;;;;4998073;28;20026;-90
2023/10/31 05:50:23;;;;;;;1.23;1.00;;;;;;;;;;4996836;28;20026;-88
2023/10/31 05:52:49;;;;;;;1.52;0.90;;;;;;;;;;4997250;28;20022;-90
2023/10/31 05:55:15;;;;;;;1.15;0.70;;;;;;;;;;4997833;28;20541;-88
2023/10/31 05:57:42;;;;;;;1.52;0.88;;;;;;;;;;4997852;28;20030;-91
2023/10/31 06:00:08;;;;;;;0.60;0.60;;;;;;;;;;5013138;28;20017;-88
2023/10/31 06:02:34;;;;;;;0.85;0.73;;;;;;;;;;5021222;28;20050;-87
2023/10/31 06:05:00;;;;;;;1.38;1.05;;;;;;;;;;4999417;28;20037;-88
2023/10/31 06:07:26;;;;;;;1.85;1.27;;;;;;;;;;4998127;28;20077;-88
2023/10/31 06:09:52;;;;;;;1.20;1.00;;;;;;;;;;4998039;28;20022;-91
2023/10/31 06:12:19;;;;;;;1.17;0.80;;;;;;;;;;4996251;28;20069;-89
2023/10/31 06:14:45;;;;;;;0.90;0.80;;;;;;;;;;4995896;28;20104;-90
2023/10/31 06:17:11;;;;;;;1.55;1.45;;;;;;;;;;4996125;28;20014;-88
2023/10/31 06:19:37;;;;;;;1.10;0.80;;;;;;;;;;4997707;28;20023;-91
2023/10/31 06:22:04;;;;;;;1.48;1.20;;;;;;;;;;4996692;28;20023;-88
2023/10/31 06:24:30;;;;;;;1.75;1.40;;;;;;;;;;4995422;28;20030;-89
2023/10/31 06:26:56;;;;;;;0.88;0.70;;;;;;;;;;4996268;28;20025;-88
2023/10/31 06:29:22;;;;;;;1.67;1.45;;;;;;;;;;4997494;28;20026;-87
2023/10/31 06:31:48;;;;;;;0.80;0.70;;;;;;;;;;4996358;28;20022;-87
2023/10/31 06:34:14;;;;;;;0.98;0.75;;;;;;;;;;4997073;28;20033;-89
2023/10/31 06:36:40;;;;;;;1.45;1.10;;;;;;;;;;4997054;28;20057;-86
2023/10/31 06:39:06;;;;;;;0.77;0.70;;;;;;;;;;4997961;28;20026;-86
2023/10/31 06:41:33;;;;;;;1.50;1.17;;;;;;;;;;4995968;28;20026;-86
2023/10/31 06:43:59;;;;;;;1.73;1.10;;;;;;;;;;4996694;28;20374;-86
2023/10/31 06:46:25;;;;;;;1.23;0.88;;;;;;;;;;4997045;28;20026;-86
2023/10/31 06:48:51;;;;;;;0.90;0.80;;;;;;;;;;4995669;28;20033;-86
2023/10/31 06:51:18;;;;;;;0.90;0.70;;;;;;;;;;4997498;28;20088;-88
2023/10/31 06:53:44;;;;;;;0.88;0.70;;;;;;;;;;4996056;28;20037;-84
2023/10/31 06:56:10;;;;;;;0.85;0.73;;;;;;;;;;4996551;28;20113;-84
2023/10/31 06:58:36;;;;;;;0.90;0.70;;;;;;;;;;4998389;28;20378;-86
2023/10/31 07:01:03;;;;;;;0.68;0.63;;;;;;;;;;4996570;28;20030;-83
2023/10/31 07:03:29;;;;;;;1.05;0.80;;;;;;;;;;4995743;28;20068;-85
2023/10/31 07:05:56;;;;;;;0.98;0.80;;;;;;;;;;4994974;28;20488;-83
2023/10/31 07:08:23;;;;;;;0.50;0.50;;;;;;;;;;4996379;28;20014;-83
2023/10/31 07:10:49;;;;;;;0.80;0.70;;;;;;;;;;4995832;28;20034;-83
2023/10/31 07:13:16;;;;;;;0.95;0.75;;;;;;;;;;4994614;28;20023;-83
2023/10/31 07:15:42;;;;;;;0.90;0.70;;;;;;;;;;4995696;28;20046;-83
2023/10/31 07:18:09;;;;;;;1.13;0.88;;;;;;;;;;4993812;28;20547;-82
2023/10/31 07:20:35;;;;;;;1.00;0.70;;;;;;;;;;4994375;28;20113;-83
2023/10/31 07:23:01;;;;;;;0.73;0.63;;;;;;;;;;4995961;28;20030;-82
2023/10/31 07:25:27;;;;;;;0.55;0.55;;;;;;;;;;4996034;28;20014;-84
2023/10/31 07:27:54;;;;;;;0.80;0.70;;;;;;;;;;4994026;28;20019;-84
2023/10/31 07:30:20;;;;;;;0.77;0.70;;;;;;;;;;4994384;28;20034;-83
2023/10/31 07:32:46;;;;;;;0.70;0.70;;;;;;;;;;4994423;28;20121;-83
2023/10/31 07:35:12;;;;;;;0.63;0.60;;;;;;;;;;4993666;28;20065;-81
2023/10/31 07:37:38;;;;;;;0.73;0.70;;;;;;;;;;4994779;28;20045;-83
2023/10/31 07:40:04;;;;;;;0.60;0.60;;;;;;;;;;4994555;28;20030;-83
2023/10/31 07:42:31;;;;;;;0.70;0.70;;;;;;;;;;4994377;28;20026;-83
2023/10/31 07:44:57;;;;;;;0.73;0.70;;;;;;;;;;4993705;28;20030;-82
2023/10/31 07:47:23;;;;;;;0.95;0.70;;;;;;;;;;4995536;28;20034;-81
2023/10/31 07:49:49;;;;;;;0.77;0.65;;;;;;;;;;4995817;28;20030;-84
2023/10/31 07:52:15;;;;;;;0.80;0.70;;;;;;;;;;4994064;28;20076;-83
2023/10/31 07:54:41;;;;;;;0.63;0.60;;;;;;;;;;4995818;28;20022;-82
2023/10/31 07:57:08;;;;;;;0.70;0.70;;;;;;;;;;4995732;28;20482;-83
2023/10/31 07:59:37;;;;;;;0.98;0.68;;;;;;;;;;4995925;28;20022;-84
2023/10/31 08:02:03;;;;;;;0.60;0.60;;;;;;;;;;4999137;28;20027;-82
2023/10/31 08:04:30;;;;;;;0.60;0.60;;;;;;;;;;5006348;28;20038;-82
2023/10/31 08:06:56;;;;;;;0.50;0.50;;;;;;;;;;4996096;28;20026;-82
2023/10/31 08:09:22;;;;;;;0.50;0.50;;;;;;;;;;4994952;28;20023;-83
2023/10/31 08:11:48;;;;;;;0.50;0.50;;;;;;;;;;4994894;28;20450;-83
2023/10/31 08:14:15;;;;;;;0.60;0.60;;;;;;;;;;4993874;28;20069;-83
2023/10/31 08:16:42;;;;;;;0.60;0.60;;;;;;;;;;4997240;28;20121;-81
2023/10/31 08:19:08;;;;;;;0.60;0.60;;;;;;;;;;4994199;28;20126;-83
2023/10/31 08:21:34;;;;;;;0.60;0.60;;;;;;;;;;4994438;28;20018;-83
2023/10/31 08:24:02;;;;;;;0.52;0.52;;;;;;;;;;4994635;28;20034;-83
2023/10/31 08:26:28;;;;;;;0.47;0.47;;;;;;;;;;4999360;28;20023;-83
2023/10/31 08:28:54;;;;;;;0.50;0.50;;;;;;;;;;5000262;28;20487;-82
2023/10/31 08:31:20;;;;;;;0.52;0.52;;;;;;;;;;5000022;28;20470;-83
2023/10/31 08:33:47;;;;;;;0.50;0.50;;;;;;;;;;4998549;28;20134;-81
2023/10/31 08:36:13;;;;;;;0.50;0.50;;;;;;;;;;4996978;28;20057;-80
2023/10/31 08:38:39;;;;;;;0.52;0.52;;;;;;;;;;4998537;28;20030;-83
2023/10/31 08:41:05;;;;;;;0.60;0.60;;;;;;;;;;4998075;28;20022;-83
2023/10/31 08:43:32;;;;;;;0.50;0.50;;;;;;;;;;5001011;28;20432;-83
2023/10/31 08:45:58;;;;;;;0.60;0.60;;;;;;;;;;5004579;28;20031;-82
2023/10/31 08:48:24;;;;;;;0.50;0.50;;;;;;;;;;5002712;28;20054;-79
2023/10/31 08:50:50;;;;;;;0.40;0.40;;;;;;;;;;5005143;28;20038;-77
2023/10/31 08:53:18;;;;;;;0.43;0.43;;;;;;;;;;5007663;28;20031;-81
2023/10/31 08:55:45;;;;;;;0.60;0.60;;;;;;;;;;5003962;28;20019;-80
2023/10/31 08:58:14;;;;;;;0.50;0.50;;;;;;;;;;5004586;28;20026;-84
2023/10/31 09:00:40;;;;;;;0.60;0.60;;;;;;;;;;4996907;28;20030;-83
2023/10/31 09:03:07;;;;;;;0.57;0.57;;;;;;;;;;4997343;28;20042;-82
2023/10/31 09:05:34;;;;;;;0.50;0.50;;;;;;;;;;4998305;28;20114;-83
2023/10/31 09:08:00;;;;;;;0.70;0.70;;;;;;;;;;4998530;28;20042;-85
2023/10/31 09:10:26;;;;;;;0.50;0.50;;;;;;;;;;4998175;28;20022;-82
2023/10/31 09:12:52;;;;;;;0.50;0.50;;;;;;;;;;4998452;28;20018;-84
2023/10/31 09:15:21;;;;;;;0.70;0.70;;;;;;;;;;4998613;28;20073;-84
2023/10/31 09:17:47;;;;;;;0.50;0.50;;;;;;;;;;4999505;28;20375;-83
2023/10/31 09:20:14;;;;;;;0.52;0.52;;;;;;;;;;4998335;28;20019;-84
2023/10/31 09:22:40;;;;;;;0.55;0.55;;;;;;;;;;4996758;28;20019;-83
2023/10/31 09:25:06;;;;;;;2.60;0.70;;;;;;;;;;4997377;28;20042;-82
2023/10/31 09:27:32;;;;;;;0.85;0.82;;;;;;;;;;4997450;28;20034;-82
2023/10/31 09:29:58;;;;;;;0.90;0.90;;;;;;;;;;4997881;28;20023;-82
2023/10/31 09:32:24;;;;;;;0.52;0.52;;;;;;;;;;4998257;28;20023;-82
2023/10/31 09:34:51;;;;;;;0.50;0.50;;;;;;;;;;4992756;28;20038;-81
2023/10/31 09:37:17;;;;;;;0.50;0.50;;;;;;;;;;5015480;28;20025;-82
2023/10/31 09:39:43;;;;;;;0.52;0.52;;;;;;;;;;5016026;28;20057;-82
2023/10/31 09:42:09;;;;;;;0.52;0.52;;;;;;;;;;5016702;28;20477;-82
2023/10/31 09:44:35;;;;;;;0.60;0.60;;;;;;;;;;5015718;28;20033;-82
2023/10/31 09:47:02;;;;;;;0.45;0.45;;;;;;;;;;5017413;28;20034;-81
2023/10/31 09:49:28;;;;;;;0.50;0.50;;;;;;;;;;5011807;28;20037;-82
2023/10/31 09:51:54;;;;;;;0.50;0.50;;;;;;;;;;4999290;28;20098;-81
2023/10/31 09:54:21;;;;;;;0.50;0.50;;;;;;;;;;5010825;28;20054;-82
2023/10/31 09:56:47;;;;;;;0.55;0.55;;;;;;;;;;5016116;28;20438;-83
2023/10/31 09:59:16;;;;;;;0.63;0.63;;;;;;;;;;5003320;28;20117;-83
2023/10/31 10:01:42;;;;;;;0.45;0.45;;;;;;;;;;5012477;28;20071;-82
2023/10/31 10:04:09;;;;;;;0.40;0.40;;;;;;;;;;4999920;28;20952;-83
2023/10/31 10:06:35;;;;;;;0.45;0.45;;;;;;;;;;5008103;28;20505;-82
2023/10/31 10:09:06;;;;;;;0.47;0.47;;;;;;;;;;5006165;28;20079;-82
2023/10/31 10:11:34;;;;;;;0.40;0.40;;;;;;;;;;5001588;28;20033;-84
2023/10/31 10:14:00;;;;;;;0.40;0.40;;;;;;;;;;5011477;28;20037;-82
2023/10/31 10:16:33;;;;;;;0.50;0.50;;;;;;;;;;5001682;28;20549;-82
2023/10/31 10:19:16;;;;;;;0.45;0.45;;;;;;;;;;5003457;28;20031;-85
2023/10/31 10:21:59;;;;;;;0.40;0.40;;;;;;;;;;5011800;28;20033;-84
2023/10/31 10:24:25;;;;;;;0.40;0.40;;;;;;;;;;5001084;28;20022;-82
2023/10/31 10:26:52;;;;;;;0.43;0.43;;;;;;;;;;5004201;28;20081;-83
2023/10/31 10:29:18;;;;;;;0.50;0.50;;;;;;;;;;5008613;28;20083;-83
2023/10/31 10:31:45;;;;;;;0.65;0.65;;;;;;;;;;5020552;28;20002;-82
2023/10/31 10:34:12;;;;;;;0.40;0.40;;;;;;;;;;5028958;28;20437;-83
2023/10/31 10:36:39;;;;;;;0.63;0.63;;;;;;;;;;5002871;28;20078;-83
2023/10/31 10:39:07;;;;;;;0.50;0.50;;;;;;;;;;5003088;28;20080;-83
2023/10/31 10:41:36;;;;;;;0.40;0.40;;;;;;;;;;5010751;28;20033;-83
2023/10/31 10:44:06;;;;;;;0.65;0.65;;;;;;;;;;5011503;28;20094;-83
2023/10/31 10:46:36;;;;;;;0.50;0.50;;;;;;;;;;5002602;28;20021;-84
2023/10/31 10:49:06;;;;;;;0.40;0.40;;;;;;;;;;5004405;28;20026;-83
2023/10/31 10:51:35;;;;;;;0.45;0.45;;;;;;;;;;4999194;28;20120;-83
2023/10/31 10:54:11;;;;;;;1.55;0.60;;;;;;;;;;5010465;28;20577;-83
2023/10/31 10:56:43;;;;;;;0.40;0.40;;;;;;;;;;5003800;28;20029;-83
2023/10/31 10:59:15;;;;;;;0.50;0.50;;;;;;;;;;5002001;28;20069;-85
2023/10/31 11:01:42;;;;;;;1.02;0.98;;;;;;;;;;5010578;28;20026;-84
2023/10/31 11:04:08;;;;;;;0.45;0.45;;;;;;;;;;4998453;28;20462;-85
2023/10/31 11:06:35;;;;;;;0.50;0.50;;;;;;;;;;5009069;28;20045;-85
2023/10/31 11:09:01;;;;;;;0.50;0.50;;;;;;;;;;5007900;28;20029;-84
2023/10/31 11:11:27;;;;;;;0.60;0.60;;;;;;;;;;5001263;28;20405;-84
2023/10/31 11:13:53;;;;;;;0.40;0.40;;;;;;;;;;5012492;28;20058;-87
2023/10/31 11:16:43;;;;;;;0.40;0.40;;;;;;;;;;5002955;28;20129;-85
2023/10/31 11:19:10;;;;;;;0.40;0.40;;;;;;;;;;4997139;28;20073;-82
2023/10/31 11:21:36;;;;;;;0.40;0.40;;;;;;;;;;4993421;28;20029;-82
2023/10/31 11:24:03;;;;;;;0.40;0.40;;;;;;;;;;5009577;28;20095;-84
2023/10/31 11:26:32;;;;;;;0.40;0.40;;;;;;;;;;5017913;28;20030;-84
2023/10/31 11:29:08;;;;;;;0.50;0.50;;;;;;;;;;5017309;28;20466;-86
2023/10/31 11:31:34;;;;;;;0.30;0.30;;;;;;;;;;5015782;28;20098;-86
2023/10/31 11:34:04;;;;;;;0.50;0.50;;;;;;;;;;5019566;28;20029;-84
2023/10/31 11:36:33;;;;;;;0.40;0.40;;;;;;;;;;5016296;28;20061;-86
2023/10/31 11:39:15;;;;;;;0.40;0.40;;;;;;;;;;5014833;28;20037;-84
2023/10/31 11:41:41;;;;;;;;;;;;;;;;;;5016534;28;20029;-85
2023/10/31 11:44:07;;;;;;;0.57;0.57;;;;;;;;;;5014339;28;20277;-86
2023/10/31 11:46:34;;;;;;;0.40;0.40;;;;;;;;;;5015214;28;20049;-85
2023/10/31 11:49:01;;;;;;;0.40;0.40;;;;;;;;;;5000308;28;20017;-85
2023/10/31 11:51:27;;;;;;;0.60;0.60;;;;;;;;;;5014353;28;20085;-85
2023/10/31 11:53:53;;;;;;;0.57;0.57;;;;;;;;;;5013539;28;20121;-86
2023/10/31 11:56:20;;;;;;;0.50;0.50;;;;;;;;;;5014424;28;20440;-86
2023/10/31 11:58:55;;;;;;;0.50;0.50;;;;;;;;;;5014199;28;20026;-85
2023/10/31 12:01:21;;;;;;;0.60;0.60;;;;;;;;;;5015672;28;20026;-85
2023/10/31 12:03:48;;;;;;;0.47;0.47;;;;;;;;;;5005545;28;20034;-84
2023/10/31 12:06:15;;;;;;;0.47;0.47;;;;;;;;;;4995572;28;20018;-86
2023/10/31 12:08:42;;;;;;;0.45;0.45;;;;;;;;;;4995144;28;20022;-85
2023/10/31 12:11:11;;;;;;;0.40;0.40;;;;;;;;;;4995481;28;20018;-84
2023/10/31 12:13:41;;;;;;;0.52;0.52;;;;;;;;;;4989928;28;20038;-85
2023/10/31 12:16:08;;;;;;;0.40;0.40;;;;;;;;;;5013309;28;20344;-86
2023/10/31 12:18:35;;;;;;;0.50;0.50;;;;;;;;;;5012572;28;20025;-85
2023/10/31 12:21:02;;;;;;;0.38;0.38;;;;;;;;;;5012654;28;20025;-84
2023/10/31 12:23:28;;;;;;;0.40;0.40;;;;;;;;;;5006885;28;20013;-86
2023/10/31 12:25:56;;;;;;;0.40;0.40;;;;;;;;;;5001335;28;20026;-86
2023/10/31 12:28:23;;;;;;;0.73;0.50;;;;;;;;;;5004738;28;20084;-85
2023/10/31 12:30:50;;;;;;;0.40;0.40;;;;;;;;;;5012883;28;20026;-85
2023/10/31 12:33:16;;;;;;;0.40;0.40;;;;;;;;;;5007682;28;20019;-85
2023/10/31 12:35:43;;;;;;;0.45;0.45;;;;;;;;;;5003419;28;20050;-85
2023/10/31 12:38:13;;;;;;;0.90;0.43;;;;;;;;;;4999074;28;20026;-87
2023/10/31 12:40:40;;;;;;;0.40;0.40;;;;;;;;;;5010310;28;20022;-86
2023/10/31 12:43:06;;;;;;;0.40;0.40;;;;;;;;;;5000871;28;20018;-86
2023/10/31 12:45:32;;;;;;;0.45;0.40;;;;;;;;;;5012888;28;20367;-84
2023/10/31 12:48:09;;;;;;;1.05;0.60;;;;;;;;;;5001105;28;20018;-85
2023/10/31 12:50:42;;;;;;;0.40;0.40;;;;;;;;;;5013742;28;20050;-86
2023/10/31 12:53:09;;;;;;;0.50;0.50;;;;;;;;;;5003334;28;20445;-83
2023/10/31 12:55:43;;;;;;;0.40;0.40;;;;;;;;;;5008423;28;20069;-84
2023/10/31 12:58:10;;;;;;;1.02;0.65;;;;;;;;;;5013006;28;20018;-85
2023/10/31 13:00:37;;;;;;;0.45;0.45;;;;;;;;;;5000708;28;20023;-87
2023/10/31 13:03:11;;;;;;;0.55;0.55;;;;;;;;;;5011936;28;20022;-85
2023/10/31 13:05:40;;;;;;;0.47;0.47;;;;;;;;;;5015805;28;20030;-88
2023/10/31 13:08:13;;;;;;;0.43;0.43;;;;;;;;;;5002258;28;20065;-87
2023/10/31 13:10:40;;;;;;;0.30;0.30;;;;;;;;;;5012917;28;20469;-87
2023/10/31 13:13:06;;;;;;;0.40;0.40;;;;;;;;;;5002236;28;20041;-87
2023/10/31 13:15:32;;;;;;;0.38;0.38;;;;;;;;;;5016482;28;20041;-85
2023/10/31 13:17:59;;;;;;;0.40;0.40;;;;;;;;;;5003321;28;20471;-85
2023/10/31 13:20:25;;;;;;;0.47;0.47;;;;;;;;;;5012425;28;20028;-85
2023/10/31 13:22:51;;;;;;;0.32;0.32;;;;;;;;;;5000160;28;20377;-84
2023/10/31 13:25:17;;;;;;;0.30;0.30;;;;;;;;;;5009715;28;20023;-85
2023/10/31 13:27:44;;;;;;;0.40;0.40;;;;;;;;;;5007423;28;20178;-85
2023/10/31 13:30:13;;;;;;;0.40;0.40;;;;;;;;;;5002820;28;20023;-84
2023/10/31 13:32:40;;;;;;;0.65;0.65;;;;;;;;;;5015752;28;20458;-85
2023/10/31 13:35:09;;;;;;;0.50;0.50;;;;;;;;;;4996558;28;20078;-85
2023/10/31 13:37:35;;;;;;;0.40;0.40;;;;;;;;;;5007555;28;20028;-84
2023/10/31 13:40:02;;;;;;;0.60;0.60;;;;;;;;;;5004287;28;20113;-88
2023/10/31 13:42:29;;;;;;;0.47;0.47;;;;;;;;;;5011327;28;20033;-86
2023/10/31 13:44:55;;;;;;;0.50;0.50;;;;;;;;;;5015796;28;20087;-86
2023/10/31 13:47:21;;;;;;;0.50;0.50;;;;;;;;;;5016468;28;20026;-86
2023/10/31 13:49:48;;;;;;;0.60;0.50;;;;;;;;;;5017897;28;20533;-86
2023/10/31 13:52:15;;;;;;;0.50;0.50;;;;;;;;;;5017116;28;20025;-85
2023/10/31 13:54:41;;;;;;;1.05;0.55;;;;;;;;;;5017162;28;20029;-86
2023/10/31 13:57:07;;;;;;;0.65;0.55;;;;;;;;;;5016851;28;20058;-84
2023/10/31 13:59:34;;;;;;;0.88;0.88;;;;;;;;;;5016647;28;20033;-81
2023/10/31 14:02:00;;;;;;;0.32;0.32;;;;;;;;;;5015709;28;20042;-84
2023/10/31 14:04:28;;;;;;;2.95;0.60;;;;;;;;;;5017705;28;20029;-85
2023/10/31 14:06:54;;;;;;;1.00;0.95;;;;;;;;;;5017902;28;20088;-85
2023/10/31 14:09:21;;;;;;;0.50;0.50;;;;;;;;;;5018744;28;20053;-84
2023/10/31 14:11:47;;;;;;;0.50;0.50;;;;;;;;;;5019459;28;20044;-84
2023/10/31 14:14:14;;;;;;;0.77;0.77;;;;;;;;;;5021303;28;20030;-84
2023/10/31 14:16:40;;;;;;;0.50;0.50;;;;;;;;;;5018728;28;20041;-84
2023/10/31 14:19:07;;;;;;;0.50;0.50;;;;;;;;;;5018231;28;20037;-84
2023/10/31 14:21:36;;;;;;;0.65;0.65;;;;;;;;;;5018249;28;20102;-84
2023/10/31 14:24:03;;;;;;;0.40;0.40;;;;;;;;;;5016270;28;20022;-82
2023/10/31 14:26:29;;;;;;;0.40;0.40;;;;;;;;;;5018769;28;20117;-84
2023/10/31 14:28:56;;;;;;;0.40;0.40;;;;;;;;;;5018000;28;20373;-83
2023/10/31 14:31:22;;;;;;;0.55;0.55;;;;;;;;;;5017192;28;20026;-83
2023/10/31 14:33:48;;;;;;;0.40;0.40;;;;;;;;;;5010514;28;20046;-82
2023/10/31 14:36:15;;;;;;;0.90;0.45;;;;;;;;;;5008574;28;20122;-84
2023/10/31 14:38:41;;;;;;;0.68;0.68;;;;;;;;;;5006783;28;20021;-82
2023/10/31 14:41:07;;;;;;;1.17;0.60;;;;;;;;;;5003793;28;20026;-83